EPGD Airport Information

Runway Information
Runway 11 Length 9186 ft width 148 ft
Elevation 450 ft Threshold 0 ft Heading 113
Runway 29 Length 9186 ft Width 148 ft
Elevation 489 ft Threshold 0 ft Heading 293
Airport Frequencies
Type APP Name GDANSK APP Frequency 127.275 MHZ
Type ATIS Name ATIS Frequency 129.625 MHZ
Type TWR Name GDANSK TWR Frequency 118.1 MHZ
Airport Navaids
Type NDB Name Gdansk Frequency 322 KHZ
Type VOR-DME Name Kartuzy Frequency 113200 KHZ
Type NDB Name Gdansk Frequency 383 KHZ
Airport Weather Information & NOTAM
ADDS - METARS form results

(1020 UTC 24 April 2019)
Data provider http://aviationweather.gov/metar/data/
 
METAR text: EPGD 241000Z 14025G37KT 110V170 CAVOK 17/02 Q1015
Conditions at: EPGD (GDANSK/REBIECHOW, PL) observed 1000 UTC 24 April 2019
Temperature: 17.0°C (63°F)
Dewpoint: 2.0°C (36°F) [RH = 36%]
Pressure (altimeter): 29.97 inches Hg (1015.0 mb)
Winds: from the SE (140 degrees) at 29 MPH (25 knots; 12.9 m/s)
gusting to 43 MPH (37 knots; 19.0 m/s)
Visibility: 6 or more miles (10+ km)
Ceiling: ceiling and visibility are OK
Clouds: unknown
Weather: no significant weather observed at this time

METAR text: EPGD 240930Z 14024G35KT CAVOK 17/03 Q1015
Conditions at: EPGD (GDANSK/REBIECHOW, PL) observed 0930 UTC 24 April 2019
Temperature: 17.0°C (63°F)
Dewpoint: 3.0°C (37°F) [RH = 39%]
Pressure (altimeter): 29.97 inches Hg (1015.0 mb)
Winds: from the SE (140 degrees) at 28 MPH (24 knots; 12.3 m/s)
gusting to 40 MPH (35 knots; 18.0 m/s)
Visibility: 6 or more miles (10+ km)
Ceiling: ceiling and visibility are OK
Clouds: unknown
Weather: no significant weather observed at this time

Forecast for: EPGD (GDANSK/REBIECHOW, PL)
Text: TAF EPGD 240530Z 2406/2506 12016KT CAVOK
Forecast period: 0600 to 1700 UTC 24 April 2019
Forecast type: FROM: standard forecast or significant change
Winds: from the ESE (120 degrees) at 18 MPH (16 knots; 8.2 m/s)
Visibility: 6 or more miles 10+ km)
Ceiling: unknown
Clouds: missing
Weather: NSW  (no significant weather)
Text: TEMPO 2407/2416 16018G34KT
Forecast period: 0700 to 1600 UTC 24 April 2019
Forecast type: TEMPORARY: The following changes expected for less than half the time period
Winds: from the SSE (160 degrees) at 21 MPH (18 knots; 9.3 m/s)
gusting to 39 MPH (34 knots; 17.5 m/s)
Visibility: missing
Ceiling: unknown
Clouds: missing
Weather: no significant weather forecast for this period
Text: BECMG 2417/2419 12006KT
Forecast period: 1700 UTC 24 April 2019 to 0600 UTC 25 April 2019
Forecast type: BECOMING: Conditions expected to become as follows by 1900 UTC 24 April 2019
Winds: from the ESE (120 degrees) at 7 MPH (6 knots; 3.1 m/s)
Visibility: 6 or more miles 10+ km)
Ceiling: unknown
Clouds: missing
Weather: NSW  (no significant weather)